sensor_id;sensor_type;location;lat;lon;timestamp;pressure;altitude;pressure_sealevel;temperature;humidity
78210;BME280;67485;48.816;9.930;2023-05-10T00:02:09;96146.09;;;13.90;95.80
78210;BME280;67485;48.816;9.930;2023-05-10T00:04:35;96147.31;;;14.00;94.21
78210;BME280;67485;48.816;9.930;2023-05-10T00:07:01;96149.03;;;14.01;93.62
78210;BME280;67485;48.816;9.930;2023-05-10T00:09:26;96151.38;;;13.90;94.91
78210;BME280;67485;48.816;9.930;2023-05-10T00:11:52;96159.19;;;13.74;96.90
78210;BME280;67485;48.816;9.930;2023-05-10T00:14:18;96155.84;;;13.70;97.60
78210;BME280;67485;48.816;9.930;2023-05-10T00:16:44;96147.84;;;13.72;97.47
78210;BME280;67485;48.816;9.930;2023-05-10T00:19:09;96156.47;;;13.75;97.92
78210;BME280;67485;48.816;9.930;2023-05-10T00:21:35;96151.06;;;13.78;97.48
78210;BME280;67485;48.816;9.930;2023-05-10T00:24:01;96158.97;;;13.78;98.25
78210;BME280;67485;48.816;9.930;2023-05-10T00:26:26;96151.81;;;13.81;97.75
78210;BME280;67485;48.816;9.930;2023-05-10T00:28:54;96147.56;;;13.78;98.28
78210;BME280;67485;48.816;9.930;2023-05-10T00:31:20;96146.41;;;13.84;98.40
78210;BME280;67485;48.816;9.930;2023-05-10T00:33:46;96151.81;;;13.81;98.14
78210;BME280;67485;48.816;9.930;2023-05-10T00:36:11;96150.09;;;13.79;98.02
78210;BME280;67485;48.816;9.930;2023-05-10T00:38:37;96152.19;;;13.90;97.04
78210;BME280;67485;48.816;9.930;2023-05-10T00:41:03;96144.22;;;13.92;95.97
78210;BME280;67485;48.816;9.930;2023-05-10T00:43:31;96147.09;;;13.87;96.72
78210;BME280;67485;48.816;9.930;2023-05-10T00:45:57;96152.91;;;13.94;96.00
78210;BME280;67485;48.816;9.930;2023-05-10T00:48:23;96153.75;;;13.94;96.06
78210;BME280;67485;48.816;9.930;2023-05-10T00:50:49;96146.53;;;13.98;95.35
78210;BME280;67485;48.816;9.930;2023-05-10T00:53:15;96152.59;;;14.00;95.02
78210;BME280;67485;48.816;9.930;2023-05-10T00:55:41;96153.59;;;13.98;94.66
78210;BME280;67485;48.816;9.930;2023-05-10T00:58:07;96146.41;;;14.01;94.49
78210;BME280;67485;48.816;9.930;2023-05-10T01:00:33;96140.66;;;13.93;94.66
78210;BME280;67485;48.816;9.930;2023-05-10T01:02:59;96149.78;;;13.86;95.13
78210;BME280;67485;48.816;9.930;2023-05-10T01:05:25;96148.25;;;13.82;95.43
78210;BME280;67485;48.816;9.930;2023-05-10T01:07:52;96156.25;;;13.80;95.54
78210;BME280;67485;48.816;9.930;2023-05-10T01:10:18;96161.81;;;13.74;95.74
78210;BME280;67485;48.816;9.930;2023-05-10T01:12:46;96157.84;;;13.65;96.48
78210;BME280;67485;48.816;9.930;2023-05-10T01:15:15;96172.94;;;13.61;97.87
78210;BME280;67485;48.816;9.930;2023-05-10T01:17:44;96174.13;;;13.56;99.01
78210;BME280;67485;48.816;9.930;2023-05-10T01:20:39;96165.19;;;13.41;100.00
78210;BME280;67485;48.816;9.930;2023-05-10T01:29:02;96181.97;;;13.38;100.00
78210;BME280;67485;48.816;9.930;2023-05-10T01:34:52;96187.25;;;13.38;99.03
78210;BME280;67485;48.816;9.930;2023-05-10T01:37:37;96186.38;;;13.38;98.21
78210;BME280;67485;48.816;9.930;2023-05-10T01:40:24;96188.69;;;13.44;95.87
78210;BME280;67485;48.816;9.930;2023-05-10T01:42:55;96187.88;;;13.43;94.37
78210;BME280;67485;48.816;9.930;2023-05-10T01:45:35;96197.06;;;13.33;94.78
78210;BME280;67485;48.816;9.930;2023-05-10T01:48:08;96200.84;;;13.27;94.34
78210;BME280;67485;48.816;9.930;2023-05-10T01:50:37;96200.31;;;13.21;94.01
78210;BME280;67485;48.816;9.930;2023-05-10T01:53:07;96202.28;;;13.16;94.20
78210;BME280;67485;48.816;9.930;2023-05-10T01:55:36;96210.41;;;13.11;94.83
78210;BME280;67485;48.816;9.930;2023-05-10T01:58:08;96208.97;;;13.04;94.87
78210;BME280;67485;48.816;9.930;2023-05-10T02:00:36;96209.53;;;12.91;95.57
78210;BME280;67485;48.816;9.930;2023-05-10T02:03:05;96214.78;;;12.91;96.06
78210;BME280;67485;48.816;9.930;2023-05-10T02:05:32;96215.63;;;12.92;95.99
78210;BME280;67485;48.816;9.930;2023-05-10T02:08:01;96220.47;;;12.82;96.47
78210;BME280;67485;48.816;9.930;2023-05-10T02:10:29;96231.00;;;12.82;96.71
78210;BME280;67485;48.816;9.930;2023-05-10T02:12:58;96233.28;;;12.90;96.26
78210;BME280;67485;48.816;9.930;2023-05-10T02:15:24;96226.59;;;12.82;96.05
78210;BME280;67485;48.816;9.930;2023-05-10T02:17:53;96225.03;;;12.78;95.63
78210;BME280;67485;48.816;9.930;2023-05-10T02:20:20;96231.03;;;12.80;95.43
78210;BME280;67485;48.816;9.930;2023-05-10T02:22:49;96224.78;;;12.83;95.67
78210;BME280;67485;48.816;9.930;2023-05-10T02:25:17;96238.66;;;12.87;95.15
78210;BME280;67485;48.816;9.930;2023-05-10T02:27:44;96234.53;;;12.81;95.00
78210;BME280;67485;48.816;9.930;2023-05-10T02:30:10;96245.97;;;12.80;94.50
78210;BME280;67485;48.816;9.930;2023-05-10T02:32:37;96247.16;;;12.73;93.95
78210;BME280;67485;48.816;9.930;2023-05-10T02:35:04;96244.34;;;12.57;95.64
78210;BME280;67485;48.816;9.930;2023-05-10T02:37:30;96249.84;;;12.52;96.05
78210;BME280;67485;48.816;9.930;2023-05-10T02:39:58;96245.31;;;12.56;96.19
78210;BME280;67485;48.816;9.930;2023-05-10T02:42:26;96253.03;;;12.59;95.54
78210;BME280;67485;48.816;9.930;2023-05-10T02:44:56;96252.13;;;12.60;95.20
78210;BME280;67485;48.816;9.930;2023-05-10T02:47:24;96250.69;;;12.53;95.40
78210;BME280;67485;48.816;9.930;2023-05-10T02:49:51;96249.38;;;12.42;95.83
78210;BME280;67485;48.816;9.930;2023-05-10T02:52:22;96257.91;;;12.47;96.86
78210;BME280;67485;48.816;9.930;2023-05-10T02:54:50;96257.38;;;12.60;96.32
78210;BME280;67485;48.816;9.930;2023-05-10T02:57:24;96257.75;;;12.51;94.91
78210;BME280;67485;48.816;9.930;2023-05-10T02:59:51;96258.63;;;12.51;95.25
78210;BME280;67485;48.816;9.930;2023-05-10T03:02:16;96265.78;;;12.47;95.83
78210;BME280;67485;48.816;9.930;2023-05-10T03:04:43;96263.69;;;12.56;95.92
78210;BME280;67485;48.816;9.930;2023-05-10T03:07:08;96256.47;;;12.61;95.16
78210;BME280;67485;48.816;9.930;2023-05-10T03:09:34;96264.47;;;12.58;94.94
78210;BME280;67485;48.816;9.930;2023-05-10T03:12:04;96263.00;;;12.51;95.10
78210;BME280;67485;48.816;9.930;2023-05-10T03:20:10;96266.19;;;12.38;96.36
78210;BME280;67485;48.816;9.930;2023-05-10T03:22:42;96271.31;;;12.41;96.33
78210;BME280;67485;48.816;9.930;2023-05-10T03:25:11;96271.84;;;12.49;95.84
78210;BME280;67485;48.816;9.930;2023-05-10T03:27:41;96273.69;;;12.47;95.88
78210;BME280;67485;48.816;9.930;2023-05-10T03:30:10;96275.25;;;12.52;95.12
78210;BME280;67485;48.816;9.930;2023-05-10T03:32:37;96271.56;;;12.35;96.97
78210;BME280;67485;48.816;9.930;2023-05-10T03:35:10;96280.91;;;12.42;96.58
78210;BME280;67485;48.816;9.930;2023-05-10T03:37:37;96283.19;;;12.50;96.00
78210;BME280;67485;48.816;9.930;2023-05-10T03:40:03;96285.75;;;12.52;95.18
78210;BME280;67485;48.816;9.930;2023-05-10T03:42:31;96278.00;;;12.48;95.69
78210;BME280;67485;48.816;9.930;2023-05-10T03:44:57;96289.59;;;12.44;96.25
78210;BME280;67485;48.816;9.930;2023-05-10T03:47:23;96294.69;;;12.47;96.37
78210;BME280;67485;48.816;9.930;2023-05-10T03:49:49;96291.72;;;12.55;95.98
78210;BME280;67485;48.816;9.930;2023-05-10T03:52:15;96292.47;;;12.59;95.25
78210;BME280;67485;48.816;9.930;2023-05-10T03:54:41;96287.13;;;12.60;94.77
78210;BME280;67485;48.816;9.930;2023-05-10T03:57:06;96291.00;;;12.52;94.70
78210;BME280;67485;48.816;9.930;2023-05-10T03:59:32;96288.53;;;12.48;95.34
78210;BME280;67485;48.816;9.930;2023-05-10T04:01:58;96287.53;;;12.51;95.65
78210;BME280;67485;48.816;9.930;2023-05-10T04:04:23;96288.91;;;12.60;95.03
78210;BME280;67485;48.816;9.930;2023-05-10T04:06:49;96290.63;;;12.61;94.75
78210;BME280;67485;48.816;9.930;2023-05-10T04:09:15;96293.72;;;12.50;95.14
78210;BME280;67485;48.816;9.930;2023-05-10T04:11:41;96285.91;;;12.48;95.43
78210;BME280;67485;48.816;9.930;2023-05-10T04:14:07;96289.44;;;12.47;95.43
78210;BME280;67485;48.816;9.930;2023-05-10T04:16:33;96291.94;;;12.51;95.55
78210;BME280;67485;48.816;9.930;2023-05-10T04:18:58;96287.88;;;12.43;96.35
78210;BME280;67485;48.816;9.930;2023-05-10T04:21:25;96290.25;;;12.49;96.75
78210;BME280;67485;48.816;9.930;2023-05-10T04:23:50;96289.19;;;12.54;96.35
78210;BME280;67485;48.816;9.930;2023-05-10T04:26:16;96290.34;;;12.46;96.02
78210;BME280;67485;48.816;9.930;2023-05-10T04:28:42;96290.28;;;12.48;96.02
78210;BME280;67485;48.816;9.930;2023-05-10T04:31:09;96288.34;;;12.53;96.25
78210;BME280;67485;48.816;9.930;2023-05-10T04:33:35;96287.91;;;12.42;96.86
78210;BME280;67485;48.816;9.930;2023-05-10T04:36:02;96298.31;;;12.45;96.97
78210;BME280;67485;48.816;9.930;2023-05-10T04:38:28;96290.75;;;12.58;96.39
78210;BME280;67485;48.816;9.930;2023-05-10T04:41:03;96297.53;;;12.63;95.37
78210;BME280;67485;48.816;9.930;2023-05-10T04:43:28;96295.09;;;12.59;95.51
78210;BME280;67485;48.816;9.930;2023-05-10T04:45:56;96296.16;;;12.55;96.26
78210;BME280;67485;48.816;9.930;2023-05-10T04:48:22;96295.66;;;12.65;95.74
78210;BME280;67485;48.816;9.930;2023-05-10T04:50:48;96295.34;;;12.73;95.06
78210;BME280;67485;48.816;9.930;2023-05-10T04:53:13;96297.47;;;12.65;94.74
78210;BME280;67485;48.816;9.930;2023-05-10T04:55:39;96304.94;;;12.74;94.40
78210;BME280;67485;48.816;9.930;2023-05-10T04:58:05;96306.31;;;12.83;93.99
78210;BME280;67485;48.816;9.930;2023-05-10T05:00:30;96308.75;;;12.88;93.76
78210;BME280;67485;48.816;9.930;2023-05-10T05:02:56;96311.00;;;12.76;94.22
78210;BME280;67485;48.816;9.930;2023-05-10T05:05:21;96315.97;;;12.82;94.65
78210;BME280;67485;48.816;9.930;2023-05-10T05:07:47;96312.16;;;12.90;94.31
78210;BME280;67485;48.816;9.930;2023-05-10T05:10:13;96314.31;;;13.01;93.72
78210;BME280;67485;48.816;9.930;2023-05-10T05:12:38;96315.66;;;13.09;93.24
78210;BME280;67485;48.816;9.930;2023-05-10T05:15:04;96320.25;;;13.06;92.87
78210;BME280;67485;48.816;9.930;2023-05-10T05:17:30;96323.84;;;13.03;92.52
78210;BME280;67485;48.816;9.930;2023-05-10T05:19:56;96323.06;;;13.01;92.94
78210;BME280;67485;48.816;9.930;2023-05-10T05:22:22;96332.59;;;13.04;93.21
78210;BME280;67485;48.816;9.930;2023-05-10T05:24:56;96323.97;;;13.00;93.79
78210;BME280;67485;48.816;9.930;2023-05-10T05:27:24;96331.34;;;12.92;93.28
78210;BME280;67485;48.816;9.930;2023-05-10T05:29:55;96334.50;;;13.00;93.71
78210;BME280;67485;48.816;9.930;2023-05-10T05:32:21;96327.53;;;12.99;93.92
78210;BME280;67485;48.816;9.930;2023-05-10T05:34:47;96341.75;;;12.95;94.04
78210;BME280;67485;48.816;9.930;2023-05-10T05:37:17;96339.34;;;13.09;94.43
78210;BME280;67485;48.816;9.930;2023-05-10T05:39:43;96340.50;;;13.23;93.26
78210;BME280;67485;48.816;9.930;2023-05-10T05:42:10;96339.53;;;13.25;92.85
78210;BME280;67485;48.816;9.930;2023-05-10T05:44:35;96339.97;;;13.35;92.06
78210;BME280;67485;48.816;9.930;2023-05-10T05:47:01;96345.13;;;13.38;91.73
78210;BME280;67485;48.816;9.930;2023-05-10T05:49:27;96338.78;;;13.42;92.09
78210;BME280;67485;48.816;9.930;2023-05-10T05:51:53;96342.06;;;13.48;91.74
78210;BME280;67485;48.816;9.930;2023-05-10T05:54:19;96338.63;;;13.45;91.11
78210;BME280;67485;48.816;9.930;2023-05-10T05:56:44;96349.56;;;13.36;90.63
78210;BME280;67485;48.816;9.930;2023-05-10T05:59:11;96347.75;;;13.38;91.47
78210;BME280;67485;48.816;9.930;2023-05-10T06:01:36;96342.97;;;13.46;91.00
78210;BME280;67485;48.816;9.930;2023-05-10T06:04:02;96353.94;;;13.37;91.24
78210;BME280;67485;48.816;9.930;2023-05-10T06:06:28;96350.91;;;13.26;91.77
78210;BME280;67485;48.816;9.930;2023-05-10T06:08:54;96351.94;;;13.22;92.27
78210;BME280;67485;48.816;9.930;2023-05-10T06:11:20;96361.72;;;13.20;92.25
78210;BME280;67485;48.816;9.930;2023-05-10T06:13:47;96360.72;;;13.22;91.97
78210;BME280;67485;48.816;9.930;2023-05-10T06:16:12;96366.25;;;13.16;92.23
78210;BME280;67485;48.816;9.930;2023-05-10T06:18:39;96362.56;;;13.20;92.04
78210;BME280;67485;48.816;9.930;2023-05-10T06:21:05;96374.16;;;13.35;91.58
78210;BME280;67485;48.816;9.930;2023-05-10T06:23:30;96374.56;;;13.46;90.95
78210;BME280;67485;48.816;9.930;2023-05-10T06:25:56;96378.47;;;13.57;90.68
78210;BME280;67485;48.816;9.930;2023-05-10T06:28:22;96380.28;;;13.56;90.09
78210;BME280;67485;48.816;9.930;2023-05-10T06:30:47;96377.94;;;13.69;90.25
78210;BME280;67485;48.816;9.930;2023-05-10T06:33:13;96382.44;;;13.67;90.67
78210;BME280;67485;48.816;9.930;2023-05-10T06:35:39;96388.09;;;13.58;90.73
78210;BME280;67485;48.816;9.930;2023-05-10T06:38:04;96381.81;;;13.41;90.67
78210;BME280;67485;48.816;9.930;2023-05-10T06:40:30;96387.94;;;13.42;91.55
78210;BME280;67485;48.816;9.930;2023-05-10T06:42:56;96388.81;;;13.42;90.61
78210;BME280;67485;48.816;9.930;2023-05-10T06:45:21;96383.00;;;13.55;91.38
78210;BME280;67485;48.816;9.930;2023-05-10T06:47:47;96374.88;;;13.78;90.22
78210;BME280;67485;48.816;9.930;2023-05-10T06:50:13;96378.91;;;13.86;89.24
78210;BME280;67485;48.816;9.930;2023-05-10T06:52:39;96376.41;;;14.02;87.77
78210;BME280;67485;48.816;9.930;2023-05-10T06:55:05;96382.56;;;14.02;87.70
78210;BME280;67485;48.816;9.930;2023-05-10T06:57:31;96388.59;;;14.04;87.19
78210;BME280;67485;48.816;9.930;2023-05-10T06:59:58;96396.50;;;14.23;87.19
78210;BME280;67485;48.816;9.930;2023-05-10T07:02:24;96388.03;;;14.34;86.15
78210;BME280;67485;48.816;9.930;2023-05-10T07:04:50;96389.94;;;14.32;86.45
78210;BME280;67485;48.816;9.930;2023-05-10T07:07:17;96388.31;;;14.10;86.29
78210;BME280;67485;48.816;9.930;2023-05-10T07:09:42;96391.97;;;13.89;87.81
78210;BME280;67485;48.816;9.930;2023-05-10T07:12:08;96386.25;;;13.98;87.99
78210;BME280;67485;48.816;9.930;2023-05-10T07:14:34;96398.06;;;14.08;87.26
78210;BME280;67485;48.816;9.930;2023-05-10T07:16:59;96389.38;;;14.06;87.13
78210;BME280;67485;48.816;9.930;2023-05-10T07:19:25;96399.19;;;14.22;86.50
78210;BME280;67485;48.816;9.930;2023-05-10T07:21:51;96396.75;;;14.36;86.36
78210;BME280;67485;48.816;9.930;2023-05-10T07:24:17;96392.78;;;14.27;86.69
78210;BME280;67485;48.816;9.930;2023-05-10T07:26:43;96399.84;;;14.08;88.01
78210;BME280;67485;48.816;9.930;2023-05-10T07:29:08;96402.56;;;14.06;88.68
78210;BME280;67485;48.816;9.930;2023-05-10T07:31:35;96400.19;;;14.19;88.26
78210;BME280;67485;48.816;9.930;2023-05-10T07:34:01;96398.22;;;14.05;89.28
78210;BME280;67485;48.816;9.930;2023-05-10T07:36:26;96406.84;;;13.90;89.63
78210;BME280;67485;48.816;9.930;2023-05-10T07:38:53;96402.97;;;13.78;90.25
78210;BME280;67485;48.816;9.930;2023-05-10T07:41:19;96405.25;;;13.48;93.32
78210;BME280;67485;48.816;9.930;2023-05-10T07:43:44;96411.31;;;13.50;93.90
78210;BME280;67485;48.816;9.930;2023-05-10T07:46:10;96419.69;;;13.58;93.37
78210;BME280;67485;48.816;9.930;2023-05-10T07:48:36;96422.41;;;13.75;91.32
78210;BME280;67485;48.816;9.930;2023-05-10T07:51:02;96415.31;;;13.97;89.88
78210;BME280;67485;48.816;9.930;2023-05-10T07:53:28;96415.28;;;14.16;88.76
78210;BME280;67485;48.816;9.930;2023-05-10T07:55:57;96416.88;;;14.20;88.91
78210;BME280;67485;48.816;9.930;2023-05-10T07:58:24;96423.81;;;14.21;89.28
78210;BME280;67485;48.816;9.930;2023-05-10T08:00:50;96422.47;;;14.31;89.51
78210;BME280;67485;48.816;9.930;2023-05-10T08:03:15;96412.41;;;14.39;88.59
78210;BME280;67485;48.816;9.930;2023-05-10T08:05:41;96422.94;;;14.39;88.73
78210;BME280;67485;48.816;9.930;2023-05-10T08:08:07;96407.84;;;14.43;88.69
78210;BME280;67485;48.816;9.930;2023-05-10T08:10:32;96414.75;;;14.63;87.64
78210;BME280;67485;48.816;9.930;2023-05-10T08:12:58;96419.28;;;14.61;87.06
78210;BME280;67485;48.816;9.930;2023-05-10T08:15:24;96412.22;;;14.25;88.80
78210;BME280;67485;48.816;9.930;2023-05-10T08:17:53;96415.06;;;14.20;90.04
78210;BME280;67485;48.816;9.930;2023-05-10T08:20:19;96417.34;;;14.28;90.56
78210;BME280;67485;48.816;9.930;2023-05-10T08:22:46;96416.16;;;14.53;89.88
78210;BME280;67485;48.816;9.930;2023-05-10T08:25:12;96420.72;;;14.86;87.31
78210;BME280;67485;48.816;9.930;2023-05-10T08:27:37;96421.25;;;15.10;86.11
78210;BME280;67485;48.816;9.930;2023-05-10T08:30:03;96416.66;;;15.31;84.28
78210;BME280;67485;48.816;9.930;2023-05-10T08:32:30;96427.63;;;15.57;82.38
78210;BME280;67485;48.816;9.930;2023-05-10T08:34:56;96419.91;;;15.36;83.18
78210;BME280;67485;48.816;9.930;2023-05-10T08:37:23;96425.22;;;15.19;82.41
78210;BME280;67485;48.816;9.930;2023-05-10T08:39:49;96421.53;;;15.39;82.63
78210;BME280;67485;48.816;9.930;2023-05-10T08:42:16;96431.69;;;15.47;82.57
78210;BME280;67485;48.816;9.930;2023-05-10T08:44:45;96420.75;;;15.88;80.80
78210;BME280;67485;48.816;9.930;2023-05-10T08:47:15;96415.19;;;16.09;80.59
78210;BME280;67485;48.816;9.930;2023-05-10T08:49:42;96419.41;;;16.13;80.09
78210;BME280;67485;48.816;9.930;2023-05-10T08:52:10;96421.84;;;16.00;79.98
78210;BME280;67485;48.816;9.930;2023-05-10T08:54:38;96421.19;;;15.63;79.94
78210;BME280;67485;48.816;9.930;2023-05-10T08:57:04;96422.31;;;15.23;81.09
78210;BME280;67485;48.816;9.930;2023-05-10T08:59:29;96416.81;;;15.28;81.60
78210;BME280;67485;48.816;9.930;2023-05-10T09:01:58;96423.22;;;15.06;82.01
78210;BME280;67485;48.816;9.930;2023-05-10T09:04:25;96427.94;;;15.00;83.34
78210;BME280;67485;48.816;9.930;2023-05-10T09:06:51;96429.72;;;14.82;82.63
78210;BME280;67485;48.816;9.930;2023-05-10T09:09:18;96440.56;;;14.75;82.53
78210;BME280;67485;48.816;9.930;2023-05-10T09:11:45;96436.84;;;14.80;83.64
78210;BME280;67485;48.816;9.930;2023-05-10T09:14:12;96446.06;;;14.88;84.04
78210;BME280;67485;48.816;9.930;2023-05-10T09:16:39;96438.56;;;15.16;84.08
78210;BME280;67485;48.816;9.930;2023-05-10T09:19:05;96447.97;;;15.04;83.85
78210;BME280;67485;48.816;9.930;2023-05-10T09:21:34;96443.69;;;14.84;83.54
78210;BME280;67485;48.816;9.930;2023-05-10T09:24:03;96453.59;;;14.59;85.13
78210;BME280;67485;48.816;9.930;2023-05-10T09:26:30;96456.28;;;14.40;86.20
78210;BME280;67485;48.816;9.930;2023-05-10T09:28:57;96457.53;;;14.51;87.38
78210;BME280;67485;48.816;9.930;2023-05-10T09:31:24;96458.41;;;14.70;86.05
78210;BME280;67485;48.816;9.930;2023-05-10T09:33:51;96458.09;;;14.77;85.93
78210;BME280;67485;48.816;9.930;2023-05-10T09:36:17;96460.91;;;14.91;85.60
78210;BME280;67485;48.816;9.930;2023-05-10T09:38:50;96456.72;;;15.04;85.01
78210;BME280;67485;48.816;9.930;2023-05-10T09:41:21;96452.66;;;15.32;82.85
78210;BME280;67485;48.816;9.930;2023-05-10T09:43:48;96449.25;;;15.48;81.62
78210;BME280;67485;48.816;9.930;2023-05-10T09:46:15;96449.78;;;15.54;80.14
78210;BME280;67485;48.816;9.930;2023-05-10T09:48:45;96456.06;;;15.52;80.84
78210;BME280;67485;48.816;9.930;2023-05-10T09:51:21;96453.78;;;15.28;80.78
78210;BME280;67485;48.816;9.930;2023-05-10T09:53:47;96462.59;;;14.92;82.20
78210;BME280;67485;48.816;9.930;2023-05-10T09:56:37;96465.81;;;14.81;83.24
78210;BME280;67485;48.816;9.930;2023-05-10T09:59:04;96467.66;;;14.60;84.64
78210;BME280;67485;48.816;9.930;2023-05-10T10:01:31;96465.78;;;14.62;83.53
78210;BME280;67485;48.816;9.930;2023-05-10T10:03:57;96460.50;;;14.62;84.05
78210;BME280;67485;48.816;9.930;2023-05-10T10:06:24;96463.78;;;14.50;82.70
78210;BME280;67485;48.816;9.930;2023-05-10T10:08:51;96466.88;;;14.58;82.42
78210;BME280;67485;48.816;9.930;2023-05-10T10:11:16;96462.75;;;14.71;83.12
78210;BME280;67485;48.816;9.930;2023-05-10T10:13:42;96460.28;;;14.86;82.08
78210;BME280;67485;48.816;9.930;2023-05-10T10:16:09;96455.47;;;14.94;80.65
78210;BME280;67485;48.816;9.930;2023-05-10T10:18:36;96460.28;;;15.03;80.94
78210;BME280;67485;48.816;9.930;2023-05-10T10:21:07;96461.84;;;15.07;80.10
78210;BME280;67485;48.816;9.930;2023-05-10T10:23:36;96459.84;;;15.13;79.17
78210;BME280;67485;48.816;9.930;2023-05-10T10:26:03;96457.81;;;15.18;78.38
78210;BME280;67485;48.816;9.930;2023-05-10T10:28:38;96449.28;;;15.13;78.67
78210;BME280;67485;48.816;9.930;2023-05-10T10:31:17;96457.44;;;15.08;78.20
78210;BME280;67485;48.816;9.930;2023-05-10T10:36:12;96459.53;;;15.36;77.52
78210;BME280;67485;48.816;9.930;2023-05-10T10:41:35;96461.34;;;15.52;75.88
78210;BME280;67485;48.816;9.930;2023-05-10T10:52:35;96462.44;;;15.65;76.02
78210;BME280;67485;48.816;9.930;2023-05-10T10:57:29;96462.09;;;16.21;73.92
78210;BME280;67485;48.816;9.930;2023-05-10T11:02:44;96457.44;;;16.89;71.18
78210;BME280;67485;48.816;9.930;2023-05-10T11:07:55;96456.88;;;16.83;69.92
78210;BME280;67485;48.816;9.930;2023-05-10T11:10:22;96458.34;;;16.57;70.27
78210;BME280;67485;48.816;9.930;2023-05-10T11:13:08;96457.53;;;16.41;68.75
78210;BME280;67485;48.816;9.930;2023-05-10T11:15:38;96451.25;;;16.74;68.96
78210;BME280;67485;48.816;9.930;2023-05-10T11:20:59;96458.59;;;16.68;68.07
78210;BME280;67485;48.816;9.930;2023-05-10T11:26:17;96453.16;;;16.40;66.87
78210;BME280;67485;48.816;9.930;2023-05-10T11:28:43;96455.56;;;16.44;67.51
78210;BME280;67485;48.816;9.930;2023-05-10T11:31:09;96451.63;;;16.35;67.58
78210;BME280;67485;48.816;9.930;2023-05-10T11:33:48;96453.84;;;16.27;68.55
78210;BME280;67485;48.816;9.930;2023-05-10T11:36:19;96447.38;;;16.49;67.95
78210;BME280;67485;48.816;9.930;2023-05-10T11:38:46;96447.72;;;16.43;68.86
78210;BME280;67485;48.816;9.930;2023-05-10T11:41:12;96448.38;;;15.98;69.19
78210;BME280;67485;48.816;9.930;2023-05-10T11:43:39;96453.22;;;15.90;70.68
78210;BME280;67485;48.816;9.930;2023-05-10T11:46:07;96450.19;;;15.29;72.55
78210;BME280;67485;48.816;9.930;2023-05-10T11:48:33;96454.69;;;15.10;73.47
78210;BME280;67485;48.816;9.930;2023-05-10T11:51:00;96463.31;;;14.96;74.80
78210;BME280;67485;48.816;9.930;2023-05-10T11:53:31;96457.63;;;14.86;75.06
78210;BME280;67485;48.816;9.930;2023-05-10T11:58:31;96479.06;;;14.60;76.71
78210;BME280;67485;48.816;9.930;2023-05-10T12:00:58;96478.34;;;14.57;76.17
78210;BME280;67485;48.816;9.930;2023-05-10T12:03:24;96478.34;;;14.57;75.03
78210;BME280;67485;48.816;9.930;2023-05-10T12:05:50;96477.94;;;14.66;75.29
78210;BME280;67485;48.816;9.930;2023-05-10T12:08:21;96476.72;;;14.54;75.34
78210;BME280;67485;48.816;9.930;2023-05-10T12:10:50;96476.25;;;14.65;74.61
78210;BME280;67485;48.816;9.930;2023-05-10T12:13:16;96483.22;;;14.66;74.31
78210;BME280;67485;48.816;9.930;2023-05-10T12:15:42;96481.25;;;14.89;75.13
78210;BME280;67485;48.816;9.930;2023-05-10T12:18:12;96489.09;;;15.08;73.74
78210;BME280;67485;48.816;9.930;2023-05-10T12:20:39;96492.25;;;15.15;73.36
78210;BME280;67485;48.816;9.930;2023-05-10T12:23:05;96487.63;;;15.20;74.41
78210;BME280;67485;48.816;9.930;2023-05-10T12:25:33;96489.50;;;15.18;73.73
78210;BME280;67485;48.816;9.930;2023-05-10T12:28:02;96482.34;;;15.20;73.81
78210;BME280;67485;48.816;9.930;2023-05-10T12:30:29;96487.63;;;15.37;73.60
78210;BME280;67485;48.816;9.930;2023-05-10T12:33:02;96494.22;;;15.46;72.28
78210;BME280;67485;48.816;9.930;2023-05-10T12:35:32;96493.66;;;15.39;72.95
78210;BME280;67485;48.816;9.930;2023-05-10T12:37:58;96493.75;;;15.20;74.03
78210;BME280;67485;48.816;9.930;2023-05-10T12:40:24;96504.56;;;14.79;74.45
78210;BME280;67485;48.816;9.930;2023-05-10T12:42:50;96509.88;;;14.41;74.67
78210;BME280;67485;48.816;9.930;2023-05-10T12:45:17;96517.06;;;14.37;75.63
78210;BME280;67485;48.816;9.930;2023-05-10T12:47:43;96522.13;;;14.23;76.69
78210;BME280;67485;48.816;9.930;2023-05-10T12:50:09;96522.41;;;14.17;78.04
78210;BME280;67485;48.816;9.930;2023-05-10T12:52:35;96528.22;;;14.04;79.01
78210;BME280;67485;48.816;9.930;2023-05-10T12:55:01;96529.50;;;13.95;79.84
78210;BME280;67485;48.816;9.930;2023-05-10T12:57:29;96533.81;;;13.77;79.65
78210;BME280;67485;48.816;9.930;2023-05-10T12:59:56;96530.25;;;13.58;80.13
78210;BME280;67485;48.816;9.930;2023-05-10T13:02:21;96537.69;;;13.69;80.66
78210;BME280;67485;48.816;9.930;2023-05-10T13:04:48;96535.25;;;13.64;80.92
78210;BME280;67485;48.816;9.930;2023-05-10T13:07:14;96535.91;;;13.69;80.80
78210;BME280;67485;48.816;9.930;2023-05-10T13:09:40;96536.44;;;13.77;81.47
78210;BME280;67485;48.816;9.930;2023-05-10T13:12:06;96544.53;;;13.73;80.67
78210;BME280;67485;48.816;9.930;2023-05-10T13:14:31;96549.59;;;13.57;80.96
78210;BME280;67485;48.816;9.930;2023-05-10T13:16:57;96550.13;;;13.44;81.24
78210;BME280;67485;48.816;9.930;2023-05-10T13:19:23;96552.09;;;13.39;81.98
78210;BME280;67485;48.816;9.930;2023-05-10T13:21:48;96551.41;;;13.13;82.01
78210;BME280;67485;48.816;9.930;2023-05-10T13:24:14;96544.97;;;13.21;81.81
78210;BME280;67485;48.816;9.930;2023-05-10T13:26:40;96540.63;;;13.20;81.86
78210;BME280;67485;48.816;9.930;2023-05-10T13:29:06;96545.00;;;13.19;80.48
78210;BME280;67485;48.816;9.930;2023-05-10T13:31:33;96543.91;;;13.25;81.23
78210;BME280;67485;48.816;9.930;2023-05-10T13:33:59;96540.09;;;13.32;80.81
78210;BME280;67485;48.816;9.930;2023-05-10T13:36:25;96547.19;;;13.30;80.65
78210;BME280;67485;48.816;9.930;2023-05-10T13:38:50;96547.59;;;13.21;80.52
78210;BME280;67485;48.816;9.930;2023-05-10T13:41:16;96540.94;;;13.33;80.02
78210;BME280;67485;48.816;9.930;2023-05-10T13:43:42;96543.44;;;13.37;79.61
78210;BME280;67485;48.816;9.930;2023-05-10T13:46:07;96549.09;;;13.49;79.47